createdAt,value
2023-05-30T00:01:20.931Z,18.30
2023-05-30T00:04:24.766Z,19.70
2023-05-30T00:07:28.075Z,16.67
2023-05-30T00:10:31.075Z,19.00
2023-05-30T00:13:36.391Z,21.10
2023-05-30T00:16:40.209Z,17.13
2023-05-30T00:19:43.856Z,17.63
2023-05-30T00:22:47.319Z,15.65
2023-05-30T00:25:50.871Z,13.73
2023-05-30T00:28:53.558Z,16.07
2023-05-30T00:31:56.403Z,13.82
2023-05-30T00:34:59.166Z,15.93
2023-05-30T00:38:02.235Z,14.77
2023-05-30T00:41:05.065Z,16.73
2023-05-30T00:44:08.242Z,17.43
2023-05-30T00:47:14.019Z,14.50
2023-05-30T00:50:17.673Z,16.58
2023-05-30T00:53:25.114Z,15.88
2023-05-30T00:56:29.320Z,14.03
2023-05-30T00:59:32.179Z,16.07
2023-05-30T01:02:35.243Z,14.82
2023-05-30T01:05:38.561Z,14.95
2023-05-30T01:08:41.464Z,14.30
2023-05-30T01:11:47.775Z,14.77
2023-05-30T01:15:12.788Z,17.43
2023-05-30T01:18:27.674Z,14.20
2023-05-30T01:21:34.901Z,13.88
2023-05-30T01:24:43.441Z,12.40
2023-05-30T01:28:16.932Z,13.80
2023-05-30T01:31:20.481Z,14.80
2023-05-30T01:34:23.511Z,15.13
2023-05-30T01:37:27.164Z,14.32
2023-05-30T01:40:33.325Z,18.35
2023-05-30T01:43:48.161Z,16.33
2023-05-30T01:47:26.086Z,12.23
2023-05-30T01:50:38.485Z,13.52
2023-05-30T01:53:47.222Z,15.95
2023-05-30T01:56:54.446Z,17.80
2023-05-30T01:59:58.803Z,15.37
2023-05-30T02:03:01.653Z,13.23
2023-05-30T02:06:04.903Z,12.65
2023-05-30T02:09:08.164Z,16.77
2023-05-30T02:12:11.555Z,15.98
2023-05-30T02:15:14.345Z,16.43
2023-05-30T02:18:19.080Z,12.83
2023-05-30T02:21:21.997Z,17.05
2023-05-30T02:24:25.831Z,14.57
2023-05-30T02:27:29.754Z,18.35
2023-05-30T02:30:35.682Z,14.73
2023-05-30T02:33:38.358Z,12.13
2023-05-30T02:36:41.128Z,13.15
2023-05-30T02:39:45.542Z,18.23
2023-05-30T02:42:48.449Z,17.73
2023-05-30T02:45:51.487Z,15.03
2023-05-30T02:48:55.468Z,15.70
2023-05-30T02:52:00.002Z,13.95
2023-05-30T02:55:08.061Z,18.77
2023-05-30T02:58:29.274Z,19.15
2023-05-30T03:01:55.018Z,16.93
2023-05-30T03:04:58.082Z,21.50
2023-05-30T03:08:01.938Z,20.55
2023-05-30T03:11:06.100Z,16.48
2023-05-30T03:14:09.596Z,21.80
2023-05-30T03:17:15.934Z,20.07
2023-05-30T03:20:18.799Z,18.33
2023-05-30T03:23:21.562Z,17.85
2023-05-30T03:26:26.560Z,18.85
2023-05-30T03:29:29.215Z,19.52
2023-05-30T03:32:32.696Z,16.93
2023-05-30T03:35:36.014Z,16.30
2023-05-30T03:38:39.407Z,17.17
2023-05-30T03:41:44.815Z,28.80
2023-05-30T03:44:47.940Z,17.60
2023-05-30T03:47:50.928Z,16.07
2023-05-30T03:50:53.687Z,15.50
2023-05-30T03:53:59.519Z,15.68
2023-05-30T03:57:05.809Z,12.70
2023-05-30T04:00:10.193Z,16.50
2023-05-30T04:03:15.163Z,18.80
2023-05-30T04:06:18.655Z,16.97
2023-05-30T04:09:21.745Z,16.75
2023-05-30T04:12:24.493Z,14.02
2023-05-30T04:15:27.275Z,16.77
2023-05-30T04:18:29.963Z,14.33
2023-05-30T04:21:32.639Z,14.90
2023-05-30T04:24:35.309Z,13.38
2023-05-30T04:27:38.049Z,19.33
2023-05-30T04:30:41.767Z,14.65
2023-05-30T04:33:47.108Z,13.53
2023-05-30T04:36:52.004Z,18.43
2023-05-30T04:39:57.251Z,13.77
2023-05-30T04:43:02.868Z,17.65
2023-05-30T04:46:11.259Z,15.10
2023-05-30T04:49:16.986Z,19.57
2023-05-30T04:52:19.952Z,16.07
2023-05-30T04:55:23.032Z,16.23
2023-05-30T04:58:26.043Z,15.05
2023-05-30T05:01:29.426Z,13.32
2023-05-30T05:04:39.715Z,14.10
2023-05-30T05:07:51.397Z,14.67
2023-05-30T05:11:00.407Z,13.90
2023-05-30T05:14:06.746Z,14.63
2023-05-30T05:17:09.589Z,12.63
2023-05-30T05:20:16.079Z,11.40
2023-05-30T05:23:19.703Z,12.70
2023-05-30T05:26:23.879Z,14.45
2023-05-30T05:29:28.589Z,14.98
2023-05-30T05:32:37.603Z,10.57
2023-05-30T05:35:41.597Z,11.80
2023-05-30T05:38:46.474Z,10.47
2023-05-30T05:41:49.399Z,12.32
2023-05-30T05:44:52.411Z,12.07
2023-05-30T05:47:55.385Z,9.93
2023-05-30T05:50:58.932Z,11.13
2023-05-30T05:54:05.046Z,9.53
2023-05-30T05:57:08.278Z,10.80
2023-05-30T06:00:11.789Z,11.73
2023-05-30T06:03:17.851Z,10.90
2023-05-30T06:06:21.085Z,13.20
2023-05-30T06:09:35.597Z,8.73
2023-05-30T06:12:47.540Z,12.45
2023-05-30T06:15:51.182Z,12.27
2023-05-30T06:19:02.751Z,12.90
2023-05-30T06:22:05.961Z,12.57
2023-05-30T06:25:10.058Z,16.17
2023-05-30T06:28:12.903Z,17.17
2023-05-30T06:31:15.687Z,14.07
2023-05-30T06:34:18.836Z,12.60
2023-05-30T06:37:21.727Z,11.60
2023-05-30T06:40:24.451Z,12.13
2023-05-30T06:43:28.270Z,11.05
2023-05-30T06:46:31.295Z,10.43
2023-05-30T06:49:35.414Z,13.07
2023-05-30T06:52:38.118Z,17.10
2023-05-30T06:55:41.245Z,13.13
2023-05-30T06:58:44.338Z,11.95
2023-05-30T07:01:47.941Z,13.95
2023-05-30T07:04:50.851Z,10.93
2023-05-30T07:07:53.521Z,14.53
2023-05-30T07:10:56.784Z,11.37
2023-05-30T07:13:59.631Z,15.27
2023-05-30T07:17:07.932Z,14.55
2023-05-30T07:20:11.166Z,13.77
2023-05-30T07:23:13.942Z,15.20
2023-05-30T07:26:16.956Z,13.83
2023-05-30T07:29:19.987Z,9.68
2023-05-30T07:32:23.223Z,15.50
2023-05-30T07:35:26.010Z,11.85
2023-05-30T07:38:28.971Z,12.50
2023-05-30T07:41:31.884Z,11.53
2023-05-30T07:44:34.703Z,10.43
2023-05-30T07:47:37.576Z,9.68
2023-05-30T07:50:40.266Z,15.98
2023-05-30T07:53:43.110Z,12.07
2023-05-30T07:56:46.063Z,12.07
2023-05-30T07:59:49.963Z,12.15
2023-05-30T08:02:52.935Z,12.05
2023-05-30T08:05:56.135Z,15.30
2023-05-30T08:09:01.756Z,14.00
2023-05-30T08:12:06.414Z,11.30
2023-05-30T08:15:10.839Z,10.18
2023-05-30T08:18:13.516Z,13.07
2023-05-30T08:21:16.641Z,13.38
2023-05-30T08:24:19.886Z,13.27
2023-05-30T08:27:22.972Z,14.30
2023-05-30T08:30:26.282Z,15.43
2023-05-30T08:33:29.232Z,14.63
2023-05-30T08:36:33.806Z,14.93
2023-05-30T08:39:36.695Z,17.53
2023-05-30T08:42:43.909Z,14.97
2023-05-30T08:45:47.822Z,14.82
2023-05-30T08:48:52.240Z,14.00
2023-05-30T08:51:56.100Z,18.25
2023-05-30T08:55:10.697Z,16.03
2023-05-30T08:58:22.451Z,14.63
2023-05-30T09:01:28.521Z,16.98
2023-05-30T09:04:32.158Z,14.40
2023-05-30T09:07:35.628Z,14.45
2023-05-30T09:10:38.994Z,11.90
2023-05-30T09:13:43.003Z,15.43
2023-05-30T09:16:46.547Z,11.25
2023-05-30T09:19:49.852Z,13.65
2023-05-30T09:22:52.549Z,13.55
2023-05-30T09:25:55.840Z,13.80
2023-05-30T09:29:02.677Z,12.73
2023-05-30T09:32:05.981Z,10.88
2023-05-30T09:35:11.097Z,10.52
2023-05-30T09:38:17.325Z,12.88
2023-05-30T09:41:20.209Z,11.07
2023-05-30T09:44:26.336Z,13.70
2023-05-30T09:47:29.124Z,10.73
2023-05-30T09:50:32.274Z,11.57
2023-05-30T09:53:34.971Z,9.82
2023-05-30T09:56:39.031Z,11.00
2023-05-30T09:59:41.965Z,9.77
2023-05-30T10:02:54.173Z,10.57
2023-05-30T10:05:58.008Z,11.98
2023-05-30T10:09:01.288Z,11.07
2023-05-30T10:12:04.807Z,11.50
2023-05-30T10:15:09.587Z,11.60
2023-05-30T10:18:17.393Z,11.63
2023-05-30T10:21:23.357Z,9.77
2023-05-30T10:24:27.211Z,10.73
2023-05-30T10:27:35.926Z,11.40
2023-05-30T10:30:39.658Z,11.27
2023-05-30T10:37:00.774Z,9.95
2023-05-30T10:40:13.805Z,11.35
2023-05-30T10:43:46.157Z,9.63
2023-05-30T10:47:06.730Z,9.67
2023-05-30T10:50:16.022Z,9.65
2023-05-30T10:53:19.530Z,8.45
2023-05-30T10:56:42.134Z,10.38
2023-05-30T10:59:44.827Z,11.00
2023-05-30T11:02:54.665Z,7.97
2023-05-30T11:05:57.857Z,10.40
2023-05-30T11:09:08.679Z,7.15
2023-05-30T11:12:23.229Z,7.90
2023-05-30T11:15:36.590Z,7.60
2023-05-30T11:18:42.127Z,8.03
2023-05-30T11:22:03.350Z,7.03
2023-05-30T11:25:19.492Z,6.55
2023-05-30T11:28:37.469Z,7.22
2023-05-30T11:31:40.850Z,7.73
2023-05-30T11:34:43.861Z,7.17
2023-05-30T11:37:47.014Z,7.30
2023-05-30T11:40:58.911Z,9.82
2023-05-30T11:44:03.110Z,6.65
2023-05-30T11:47:31.816Z,6.43
2023-05-30T11:50:44.918Z,5.93
2023-05-30T11:53:48.342Z,6.93
2023-05-30T11:57:01.437Z,6.88
2023-05-30T12:00:16.806Z,6.72
2023-05-30T12:03:20.125Z,6.57
2023-05-30T12:06:23.448Z,5.57
2023-05-30T12:09:30.726Z,6.38
2023-05-30T12:12:33.990Z,5.97
2023-05-30T12:15:40.032Z,6.93
2023-05-30T12:18:42.962Z,6.33
2023-05-30T12:21:45.959Z,7.07
2023-05-30T12:24:50.586Z,6.50
2023-05-30T12:27:56.640Z,6.10
2023-05-30T12:30:59.588Z,5.47
2023-05-30T12:34:03.118Z,5.53
2023-05-30T12:37:13.217Z,6.00
2023-05-30T12:40:16.489Z,5.35
2023-05-30T12:43:29.563Z,6.00
2023-05-30T12:46:35.268Z,5.85
2023-05-30T12:49:38.725Z,5.97
2023-05-30T12:52:47.227Z,6.20
2023-05-30T12:55:50.435Z,6.55
2023-05-30T12:58:53.388Z,5.50
2023-05-30T13:01:59.551Z,6.03
2023-05-30T13:05:02.804Z,5.63
2023-05-30T13:08:06.075Z,5.57
2023-05-30T13:11:09.381Z,7.03
2023-05-30T13:14:12.169Z,5.65
2023-05-30T13:17:15.601Z,5.25
2023-05-30T13:20:18.977Z,5.70
2023-05-30T13:23:23.013Z,6.03
2023-05-30T13:26:26.855Z,6.13
2023-05-30T13:29:29.613Z,8.65
2023-05-30T13:32:32.725Z,5.95
2023-05-30T13:35:35.625Z,6.03
2023-05-30T13:38:40.574Z,6.53
2023-05-30T13:41:43.459Z,6.97
2023-05-30T13:44:46.486Z,6.40
2023-05-30T13:47:51.820Z,6.22
2023-05-30T13:50:55.426Z,8.47
2023-05-30T13:54:02.486Z,5.83
2023-05-30T13:57:06.679Z,6.35
2023-05-30T14:00:10.390Z,6.78
2023-05-30T14:03:13.648Z,5.95
2023-05-30T14:06:17.465Z,6.60
2023-05-30T14:09:23.555Z,6.77
2023-05-30T14:12:27.667Z,5.40
2023-05-30T14:15:31.963Z,6.10
2023-05-30T14:18:34.787Z,6.47
2023-05-30T14:21:41.244Z,6.53
2023-05-30T14:24:45.375Z,6.40
2023-05-30T14:27:48.278Z,8.07
2023-05-30T14:30:51.135Z,6.80
2023-05-30T14:33:54.033Z,6.18
2023-05-30T14:36:56.945Z,6.93
2023-05-30T14:40:00.606Z,6.57
2023-05-30T14:43:03.594Z,7.35
2023-05-30T14:46:06.901Z,6.78
2023-05-30T14:49:09.788Z,7.30
2023-05-30T14:52:12.865Z,6.60
2023-05-30T14:55:15.871Z,6.03
2023-05-30T14:58:18.899Z,6.65
2023-05-30T15:04:28.085Z,7.80
2023-05-30T15:07:31.429Z,7.00
2023-05-30T15:10:34.084Z,7.37
2023-05-30T15:13:37.017Z,6.13
2023-05-30T15:16:40.683Z,6.97
2023-05-30T15:19:43.615Z,6.78
2023-05-30T15:22:46.466Z,6.77
2023-05-30T15:25:49.149Z,7.60
2023-05-30T15:28:52.204Z,6.88
2023-05-30T15:31:55.394Z,7.15
2023-05-30T15:34:58.245Z,11.60
2023-05-30T15:38:01.141Z,8.03
2023-05-30T15:41:03.889Z,8.13
2023-05-30T15:44:07.087Z,7.60
2023-05-30T15:47:09.962Z,9.20
2023-05-30T15:50:13.795Z,7.63
2023-05-30T15:53:16.542Z,8.57
2023-05-30T15:56:20.045Z,6.97
2023-05-30T15:59:22.843Z,8.05
2023-05-30T16:02:25.886Z,8.77
2023-05-30T16:05:29.254Z,7.82
2023-05-30T16:08:32.118Z,7.70
2023-05-30T16:11:35.014Z,8.20
2023-05-30T16:14:38.042Z,8.00
2023-05-30T16:17:41.008Z,6.70
2023-05-30T16:20:45.050Z,8.02
2023-05-30T16:23:47.912Z,9.20
2023-05-30T16:26:52.088Z,8.67
2023-05-30T16:29:55.571Z,8.35
2023-05-30T16:32:58.332Z,7.57
2023-05-30T16:36:09.101Z,8.02
2023-05-30T16:39:13.368Z,10.37
2023-05-30T16:42:16.123Z,9.20
2023-05-30T16:45:18.969Z,9.50
2023-05-30T16:48:23.737Z,8.73
2023-05-30T16:51:26.996Z,10.38
2023-05-30T16:54:29.728Z,12.40
2023-05-30T16:57:34.395Z,10.53
2023-05-30T17:00:37.222Z,14.23
2023-05-30T17:03:41.730Z,10.70
2023-05-30T17:06:44.718Z,12.00
2023-05-30T17:09:47.520Z,16.37
2023-05-30T17:12:51.449Z,14.23
2023-05-30T17:15:54.340Z,14.68
2023-05-30T17:18:59.660Z,17.92
2023-05-30T17:22:02.433Z,17.63
2023-05-30T17:25:05.639Z,16.70
2023-05-30T17:28:08.410Z,19.57
2023-05-30T17:31:11.217Z,16.38
2023-05-30T17:34:13.948Z,13.32
2023-05-30T17:37:17.080Z,14.50
2023-05-30T17:40:20.076Z,16.20
2023-05-30T17:43:24.442Z,17.03
2023-05-30T17:46:27.348Z,14.15
2023-05-30T17:49:30.287Z,13.20
2023-05-30T17:52:33.060Z,15.80
2023-05-30T17:55:36.270Z,12.83
2023-05-30T17:58:39.110Z,11.10
2023-05-30T18:01:42.353Z,10.32
2023-05-30T18:04:45.176Z,12.32
2023-05-30T18:07:48.092Z,14.43
2023-05-30T18:10:51.363Z,13.17
2023-05-30T18:13:54.089Z,11.40
2023-05-30T18:16:56.766Z,15.43
2023-05-30T18:20:05.909Z,20.38
2023-05-30T18:23:09.684Z,21.83
2023-05-30T18:26:14.204Z,19.40
2023-05-30T18:29:17.163Z,20.37
2023-05-30T18:32:19.883Z,16.50
2023-05-30T18:35:22.695Z,15.05
2023-05-30T18:38:25.617Z,14.05
2023-05-30T18:41:28.346Z,18.10
2023-05-30T18:44:31.261Z,17.27
2023-05-30T18:47:34.010Z,14.70
2023-05-30T18:50:36.812Z,13.38
2023-05-30T18:53:39.572Z,15.32
2023-05-30T18:56:47.567Z,12.83
2023-05-30T18:59:50.564Z,19.17
2023-05-30T19:02:54.952Z,16.35
2023-05-30T19:05:57.969Z,14.50
2023-05-30T19:09:01.541Z,15.93
2023-05-30T19:12:04.612Z,13.27
2023-05-30T19:15:07.764Z,15.07
2023-05-30T19:18:10.540Z,17.10
2023-05-30T19:21:13.266Z,14.05
2023-05-30T19:24:18.920Z,14.43
2023-05-30T19:27:22.259Z,15.60
2023-05-30T19:30:25.099Z,15.17
2023-05-30T19:33:28.922Z,17.15
2023-05-30T19:36:31.639Z,15.27
2023-05-30T19:39:36.778Z,12.93
2023-05-30T19:42:39.600Z,15.80
2023-05-30T19:45:43.714Z,15.03
2023-05-30T19:48:49.692Z,14.90
2023-05-30T19:51:52.663Z,15.82
2023-05-30T19:54:55.391Z,14.40
2023-05-30T19:57:58.052Z,16.30
2023-05-30T20:01:01.509Z,15.27
2023-05-30T20:04:07.459Z,14.23
2023-05-30T20:07:10.328Z,16.92
2023-05-30T20:10:13.048Z,18.83
2023-05-30T20:13:16.892Z,15.37
2023-05-30T20:16:20.806Z,12.87
2023-05-30T20:19:23.574Z,16.50
2023-05-30T20:22:27.437Z,16.70
2023-05-30T20:25:30.463Z,16.27
2023-05-30T20:28:33.634Z,17.73
2023-05-30T20:31:36.538Z,16.60
2023-05-30T20:34:39.255Z,15.20
2023-05-30T20:37:42.068Z,19.45
2023-05-30T20:40:45.431Z,17.65
2023-05-30T20:43:51.661Z,17.80
2023-05-30T20:46:57.021Z,17.00
2023-05-30T20:50:04.667Z,39.45
2023-05-30T20:53:12.858Z,19.70
2023-05-30T20:56:19.396Z,17.50
2023-05-30T20:59:22.134Z,16.83
2023-05-30T21:02:25.072Z,18.47
2023-05-30T21:05:27.911Z,17.48
2023-05-30T21:08:31.097Z,15.77
2023-05-30T21:11:33.953Z,17.30
2023-05-30T21:14:36.776Z,15.17
2023-05-30T21:17:39.721Z,17.53
2023-05-30T21:20:44.254Z,17.30
2023-05-30T21:23:47.361Z,16.50
2023-05-30T21:26:50.186Z,17.33
2023-05-30T21:29:55.595Z,22.10
2023-05-30T21:32:58.421Z,21.33
2023-05-30T21:36:01.206Z,22.00
2023-05-30T21:39:04.306Z,26.58
2023-05-30T21:42:07.565Z,19.90
2023-05-30T21:45:13.830Z,22.23
2023-05-30T21:48:16.629Z,24.33
2023-05-30T21:51:19.375Z,20.80
2023-05-30T21:54:43.872Z,18.85
2023-05-30T21:57:46.715Z,22.77
2023-05-30T22:00:49.987Z,26.93
2023-05-30T22:03:53.212Z,22.10
2023-05-30T22:06:57.323Z,25.10
2023-05-30T22:10:00.305Z,19.60
2023-05-30T22:13:03.325Z,17.85
2023-05-30T22:16:06.095Z,18.73
2023-05-30T22:19:08.926Z,18.80
2023-05-30T22:22:11.563Z,18.90
2023-05-30T22:25:14.314Z,21.25
2023-05-30T22:28:17.053Z,21.98
2023-05-30T22:31:19.848Z,19.63
2023-05-30T22:34:22.608Z,18.60
2023-05-30T22:37:25.409Z,21.83
2023-05-30T22:40:28.219Z,25.77
2023-05-30T22:43:30.943Z,28.10
2023-05-30T22:46:33.981Z,30.90
2023-05-30T22:49:36.920Z,26.37
2023-05-30T22:52:39.626Z,28.38
2023-05-30T22:55:42.423Z,24.13
2023-05-30T22:58:45.145Z,30.67
2023-05-30T23:01:48.051Z,26.47
2023-05-30T23:04:50.950Z,23.27
2023-05-30T23:07:53.766Z,24.25
2023-05-30T23:10:56.554Z,22.73
2023-05-30T23:13:59.339Z,24.35
2023-05-30T23:17:02.052Z,25.33
2023-05-30T23:20:05.405Z,25.87
2023-05-30T23:23:08.160Z,22.73
2023-05-30T23:26:10.906Z,19.95
2023-05-30T23:29:13.748Z,24.42
2023-05-30T23:32:16.668Z,20.47
2023-05-30T23:35:19.788Z,18.67
2023-05-30T23:38:22.573Z,20.65
2023-05-30T23:41:26.593Z,21.42
2023-05-30T23:44:29.384Z,18.63
2023-05-30T23:47:32.185Z,21.00
2023-05-30T23:50:35.026Z,18.57
2023-05-30T23:53:37.764Z,22.90
2023-05-30T23:56:40.594Z,21.30
2023-05-30T23:59:43.579Z,23.25
